createdAt,value
2022-08-27T00:00:02.576Z,95.31
2022-08-27T00:05:02.425Z,95.11
2022-08-27T00:10:02.331Z,95.51
2022-08-27T00:15:02.288Z,95.61
2022-08-27T00:20:02.247Z,95.31
2022-08-27T00:25:02.162Z,95.31
2022-08-27T00:30:02.189Z,95.41
2022-08-27T00:35:02.231Z,95.31
2022-08-27T00:40:02.136Z,95.26
2022-08-27T00:45:02.113Z,95.06
2022-08-27T00:50:02.025Z,95.56
2022-08-27T00:55:01.874Z,95.76
2022-08-27T01:00:01.827Z,95.56
2022-08-27T01:05:01.743Z,95.96
2022-08-27T01:10:01.692Z,95.96
2022-08-27T01:15:01.718Z,95.66
2022-08-27T01:20:01.580Z,95.86
2022-08-27T01:25:01.553Z,95.66
2022-08-27T01:30:01.522Z,95.70
2022-08-27T01:35:01.412Z,95.70
2022-08-27T01:40:01.426Z,95.90
2022-08-27T01:45:01.377Z,96.11
2022-08-27T01:50:01.271Z,96.21
2022-08-27T01:55:01.212Z,96.41
2022-08-27T02:00:01.198Z,96.31
2022-08-27T02:05:01.132Z,96.31
2022-08-27T02:10:01.025Z,96.76
2022-08-27T02:15:01.030Z,96.76
2022-08-27T02:20:00.915Z,96.66
2022-08-27T02:25:00.917Z,96.86
2022-08-27T02:30:00.819Z,96.91
2022-08-27T02:35:00.777Z,96.36
2022-08-27T02:40:00.836Z,96.30
2022-08-27T02:45:00.698Z,96.00
2022-08-27T02:50:00.649Z,96.00
2022-08-27T02:55:00.656Z,96.00
2022-08-27T03:00:00.499Z,96.30
2022-08-27T03:05:00.534Z,95.90
2022-08-27T03:10:00.402Z,96.00
2022-08-27T03:15:00.452Z,96.20
2022-08-27T03:20:00.321Z,96.00
2022-08-27T03:25:00.375Z,95.90
2022-08-27T03:30:03.797Z,95.79
2022-08-27T03:35:00.129Z,95.94
2022-08-27T03:40:00.168Z,95.74
2022-08-27T03:45:00.005Z,95.74
2022-08-27T03:49:59.995Z,95.84
2022-08-27T03:55:00.007Z,95.94
2022-08-27T03:59:59.841Z,95.74
2022-08-27T04:04:59.900Z,95.94
2022-08-27T04:09:59.712Z,96.14
2022-08-27T04:14:59.756Z,95.84
2022-08-27T04:20:18.720Z,96.19
2022-08-27T04:25:01.759Z,96.39
2022-08-27T04:29:59.621Z,96.39
2022-08-27T04:34:59.725Z,96.65
2022-08-27T04:40:00.561Z,96.39
2022-08-27T04:44:59.457Z,96.69
2022-08-27T04:50:00.385Z,96.89
2022-08-27T04:54:59.320Z,96.80
2022-08-27T04:59:59.231Z,96.69
2022-08-27T05:05:00.250Z,97.20
2022-08-27T05:09:59.110Z,97.00
2022-08-27T05:15:00.236Z,96.89
2022-08-27T05:19:59.018Z,96.69
2022-08-27T05:24:58.988Z,96.59
2022-08-27T05:29:58.941Z,96.69
2022-08-27T05:34:59.952Z,96.80
2022-08-27T05:39:58.738Z,96.39
2022-08-27T05:45:07.490Z,96.29
2022-08-27T05:49:58.535Z,96.59
2022-08-27T05:54:58.527Z,96.69
2022-08-27T05:59:58.480Z,96.80
2022-08-27T06:04:58.524Z,96.49
2022-08-27T06:09:58.447Z,96.80
2022-08-27T06:14:58.393Z,96.89
2022-08-27T06:19:58.222Z,97.00
2022-08-27T06:24:58.184Z,97.10
2022-08-27T06:29:58.128Z,96.95
2022-08-27T06:34:58.179Z,96.45
2022-08-27T06:39:58.064Z,96.49
2022-08-27T06:44:59.988Z,96.34
2022-08-27T06:49:57.896Z,95.94
2022-08-27T06:54:57.861Z,96.04
2022-08-27T06:59:57.834Z,95.94
2022-08-27T07:04:57.726Z,95.54
2022-08-27T07:09:57.720Z,95.43
2022-08-27T07:14:57.659Z,95.84
2022-08-27T07:19:57.689Z,95.79
2022-08-27T07:24:57.523Z,94.79
2022-08-27T07:29:57.547Z,94.89
2022-08-27T07:34:57.428Z,94.38
2022-08-27T07:39:57.449Z,94.04
2022-08-27T07:44:57.295Z,93.29
2022-08-27T07:49:57.300Z,93.34
2022-08-27T07:54:57.219Z,91.78
2022-08-27T07:59:57.138Z,91.99
2022-08-27T08:04:57.275Z,90.53
2022-08-27T08:09:57.222Z,90.64
2022-08-27T08:14:57.062Z,89.63
2022-08-27T08:20:17.482Z,88.38
2022-08-27T08:24:57.859Z,88.74
2022-08-27T08:29:57.829Z,88.79
2022-08-27T08:34:56.799Z,88.09
2022-08-27T08:39:56.808Z,87.39
2022-08-27T08:44:56.790Z,89.15
2022-08-27T08:49:56.581Z,88.71
2022-08-27T08:54:57.693Z,84.80
2022-08-27T08:59:56.624Z,84.99
2022-08-27T09:04:56.588Z,84.35
2022-08-27T09:09:56.506Z,84.05
2022-08-27T09:14:56.294Z,85.25
2022-08-27T09:19:56.388Z,81.94
2022-08-27T09:24:56.416Z,83.71
2022-08-27T09:29:56.267Z,84.91
2022-08-27T09:34:56.200Z,84.51
2022-08-27T09:39:56.091Z,82.37
2022-08-27T09:44:55.977Z,82.82
2022-08-27T09:49:55.928Z,82.63
2022-08-27T09:54:55.957Z,79.82
2022-08-27T09:59:55.898Z,78.05
2022-08-27T10:04:55.818Z,79.32
2022-08-27T10:09:56.804Z,77.37
2022-08-27T10:14:55.650Z,75.57
2022-08-27T10:19:55.614Z,75.63
2022-08-27T10:24:55.554Z,73.63
2022-08-27T10:29:55.493Z,75.30
2022-08-27T10:34:55.563Z,73.77
2022-08-27T10:39:55.584Z,76.30
2022-08-27T10:44:55.344Z,73.72
2022-08-27T10:49:55.397Z,70.79
2022-08-27T10:54:55.336Z,70.49
2022-08-27T10:59:55.169Z,71.59
2022-08-27T11:04:55.097Z,74.96
2022-08-27T11:09:57.185Z,71.03
2022-08-27T11:14:55.011Z,70.29
2022-08-27T11:19:54.949Z,67.36
2022-08-27T11:24:55.083Z,65.73
2022-08-27T11:29:59.909Z,66.77
2022-08-27T11:34:55.792Z,66.36
2022-08-27T11:39:54.754Z,65.97
2022-08-27T11:44:54.683Z,66.24
2022-08-27T11:49:54.773Z,66.70
2022-08-27T11:54:54.605Z,65.37
2022-08-27T11:59:54.650Z,64.81
2022-08-27T12:04:54.481Z,64.58
2022-08-27T12:09:54.430Z,63.98
2022-08-27T12:14:54.368Z,62.29
2022-08-27T12:19:54.323Z,62.78
2022-08-27T12:24:55.727Z,62.95
2022-08-27T12:29:54.289Z,63.25
2022-08-27T12:34:59.087Z,62.98
2022-08-27T12:39:55.254Z,63.95
2022-08-27T12:44:54.108Z,64.84
2022-08-27T12:49:55.885Z,62.05
2022-08-27T12:54:53.946Z,65.20
2022-08-27T12:59:53.948Z,64.61
2022-08-27T13:04:53.879Z,64.24
2022-08-27T13:09:57.295Z,65.67
2022-08-27T13:14:57.071Z,65.10
2022-08-27T13:19:53.673Z,64.33
2022-08-27T13:24:53.624Z,65.30
2022-08-27T13:29:53.586Z,64.33
2022-08-27T13:34:53.524Z,64.10
2022-08-27T13:39:53.524Z,64.10
2022-08-27T13:44:53.565Z,64.10
2022-08-27T13:49:53.367Z,64.17
2022-08-27T13:54:53.297Z,64.30
2022-08-27T13:59:53.260Z,63.67
2022-08-27T14:04:53.190Z,63.97
2022-08-27T14:09:54.835Z,63.87
2022-08-27T14:14:53.090Z,63.50
2022-08-27T14:19:53.173Z,63.77
2022-08-27T14:24:53.110Z,63.84
2022-08-27T14:29:52.925Z,60.79
2022-08-27T14:34:52.862Z,60.22
2022-08-27T14:39:52.822Z,61.19
2022-08-27T14:44:52.776Z,59.49
2022-08-27T14:49:52.804Z,60.46
2022-08-27T14:54:52.668Z,59.09
2022-08-27T14:59:52.599Z,59.56
2022-08-27T15:04:52.673Z,60.49
2022-08-27T15:09:52.488Z,60.59
2022-08-27T15:14:52.453Z,58.29
2022-08-27T15:19:52.414Z,60.69
2022-08-27T15:24:52.500Z,60.09
2022-08-27T15:29:52.337Z,59.62
2022-08-27T15:34:53.414Z,59.75
2022-08-27T15:39:52.750Z,59.85
2022-08-27T15:44:52.112Z,59.08
2022-08-27T15:49:52.083Z,60.78
2022-08-27T15:54:52.147Z,60.38
2022-08-27T15:59:52.079Z,61.00
2022-08-27T16:04:52.016Z,59.88
2022-08-27T16:09:56.394Z,60.61
2022-08-27T16:14:51.791Z,60.80
2022-08-27T16:19:51.842Z,60.41
2022-08-27T16:24:51.778Z,60.50
2022-08-27T16:31:03.010Z,61.21
2022-08-27T16:36:02.891Z,61.21
2022-08-27T16:41:02.831Z,61.54
2022-08-27T16:46:02.860Z,62.34
2022-08-27T16:51:02.838Z,61.16
2022-08-27T16:56:02.674Z,63.06
2022-08-27T17:01:02.671Z,62.49
2022-08-27T17:06:02.575Z,62.09
2022-08-27T17:11:02.517Z,61.59
2022-08-27T17:16:02.577Z,61.40
2022-08-27T17:21:02.375Z,62.39
2022-08-27T17:26:02.342Z,64.83
2022-08-27T17:31:02.395Z,63.02
2022-08-27T17:36:02.353Z,63.32
2022-08-27T17:41:02.185Z,63.72
2022-08-27T17:46:09.221Z,63.06
2022-08-27T17:51:02.084Z,65.66
2022-08-27T17:56:02.103Z,64.65
2022-08-27T18:01:02.088Z,65.05
2022-08-27T18:06:01.996Z,65.39
2022-08-27T18:11:01.851Z,66.02
2022-08-27T18:16:01.815Z,65.59
2022-08-27T18:21:01.764Z,65.31
2022-08-27T18:26:01.673Z,66.32
2022-08-27T18:31:03.633Z,66.32
2022-08-27T18:36:02.617Z,67.12
2022-08-27T18:41:01.530Z,66.95
2022-08-27T18:46:01.555Z,67.05
2022-08-27T18:51:01.438Z,67.25
2022-08-27T18:56:01.378Z,67.76
2022-08-27T19:01:01.445Z,67.49
2022-08-27T19:06:01.265Z,66.99
2022-08-27T19:11:02.248Z,67.49
2022-08-27T19:16:01.150Z,67.29
2022-08-27T19:21:01.138Z,68.79
2022-08-27T19:26:01.071Z,69.73
2022-08-27T19:31:01.027Z,69.92
2022-08-27T19:36:00.950Z,71.33
2022-08-27T19:41:00.911Z,71.23
2022-08-27T19:46:00.941Z,72.37
2022-08-27T19:51:00.876Z,72.37
2022-08-27T19:56:00.822Z,72.06
2022-08-27T20:01:00.775Z,71.36
2022-08-27T20:06:00.662Z,71.97
2022-08-27T20:11:00.633Z,72.67
2022-08-27T20:16:00.646Z,72.06
2022-08-27T20:21:06.155Z,72.80
2022-08-27T20:26:01.652Z,72.10
2022-08-27T20:31:00.361Z,72.10
2022-08-27T20:36:00.340Z,73.10
2022-08-27T20:41:00.230Z,73.71
2022-08-27T20:46:00.252Z,73.71
2022-08-27T20:51:00.176Z,74.35
2022-08-27T20:56:00.064Z,74.85
2022-08-27T21:01:00.195Z,74.55
2022-08-27T21:06:00.037Z,74.85
2022-08-27T21:10:59.943Z,74.74
2022-08-27T21:16:00.001Z,74.98
2022-08-27T21:20:59.882Z,75.89
2022-08-27T21:25:59.732Z,76.59
2022-08-27T21:30:59.664Z,76.49
2022-08-27T21:35:59.644Z,77.20
2022-08-27T21:40:59.544Z,78.54
2022-08-27T21:45:59.524Z,78.14
2022-08-27T21:50:59.455Z,75.92
2022-08-27T21:55:59.418Z,75.72
2022-08-27T22:00:59.436Z,75.22
2022-08-27T22:05:59.289Z,73.61
2022-08-27T22:10:59.235Z,70.66
2022-08-27T22:15:59.287Z,69.76
2022-08-27T22:20:59.134Z,69.06
2022-08-27T22:25:59.046Z,68.75
2022-08-27T22:30:59.074Z,68.21
2022-08-27T22:35:58.955Z,68.21
2022-08-27T22:40:58.939Z,69.06
2022-08-27T22:45:58.851Z,68.85
2022-08-27T22:50:59.111Z,68.98
2022-08-27T22:55:58.727Z,69.09
2022-08-27T23:00:58.689Z,68.28
2022-08-27T23:05:58.636Z,69.59
2022-08-27T23:10:58.579Z,69.79
2022-08-27T23:15:58.608Z,69.49
2022-08-27T23:20:58.468Z,68.98
2022-08-27T23:25:58.488Z,70.83
2022-08-27T23:30:58.374Z,69.52
2022-08-27T23:35:58.315Z,69.82
2022-08-27T23:40:58.298Z,70.43
2022-08-27T23:46:05.280Z,69.82
2022-08-27T23:50:58.229Z,69.62
2022-08-27T23:55:58.108Z,69.42
